sensor_id;sensor_type;location;lat;lon;timestamp;P1;durP1;ratioP1;P2;durP2;ratioP2
78744;SDS011;68064;53.100;8.824;2023-07-28T00:00:23;3.00;;;0.17;;
78744;SDS011;68064;53.100;8.824;2023-07-28T00:01:24;3.30;;;0.40;;
78744;SDS011;68064;53.100;8.824;2023-07-28T00:02:26;2.95;;;0.30;;
78744;SDS011;68064;53.100;8.824;2023-07-28T00:04:29;2.38;;;0.20;;
78744;SDS011;68064;53.100;8.824;2023-07-28T00:05:30;3.25;;;0.20;;
78744;SDS011;68064;53.100;8.824;2023-07-28T00:06:31;2.58;;;0.20;;
78744;SDS011;68064;53.100;8.824;2023-07-28T00:07:32;1.85;;;0.20;;
78744;SDS011;68064;53.100;8.824;2023-07-28T00:08:33;3.22;;;0.25;;
78744;SDS011;68064;53.100;8.824;2023-07-28T00:09:35;3.28;;;0.43;;
78744;SDS011;68064;53.100;8.824;2023-07-28T00:10:39;3.17;;;0.45;;
78744;SDS011;68064;53.100;8.824;2023-07-28T00:11:41;2.05;;;0.20;;
78744;SDS011;68064;53.100;8.824;2023-07-28T00:12:42;2.38;;;0.20;;
78744;SDS011;68064;53.100;8.824;2023-07-28T00:14:44;2.72;;;0.30;;
78744;SDS011;68064;53.100;8.824;2023-07-28T00:15:45;2.45;;;0.20;;
78744;SDS011;68064;53.100;8.824;2023-07-28T00:16:46;2.20;;;0.30;;
78744;SDS011;68064;53.100;8.824;2023-07-28T00:18:50;2.45;;;0.20;;
78744;SDS011;68064;53.100;8.824;2023-07-28T00:19:51;2.05;;;0.13;;
78744;SDS011;68064;53.100;8.824;2023-07-28T00:21:53;1.98;;;0.10;;
78744;SDS011;68064;53.100;8.824;2023-07-28T00:23:54;2.28;;;0.30;;
78744;SDS011;68064;53.100;8.824;2023-07-28T00:25:56;2.63;;;0.20;;
78744;SDS011;68064;53.100;8.824;2023-07-28T00:27:58;2.83;;;0.30;;
78744;SDS011;68064;53.100;8.824;2023-07-28T00:28:59;1.23;;;0.10;;
78744;SDS011;68064;53.100;8.824;2023-07-28T00:30:00;2.17;;;0.20;;
78744;SDS011;68064;53.100;8.824;2023-07-28T00:32:02;1.60;;;0.22;;
78744;SDS011;68064;53.100;8.824;2023-07-28T00:34:05;2.30;;;0.30;;
78744;SDS011;68064;53.100;8.824;2023-07-28T00:35:07;2.72;;;0.30;;
78744;SDS011;68064;53.100;8.824;2023-07-28T00:36:08;3.97;;;0.85;;
78744;SDS011;68064;53.100;8.824;2023-07-28T00:37:09;3.33;;;0.20;;
78744;SDS011;68064;53.100;8.824;2023-07-28T00:38:10;0.85;;;0.10;;
78744;SDS011;68064;53.100;8.824;2023-07-28T00:39:11;2.20;;;0.25;;
78744;SDS011;68064;53.100;8.824;2023-07-28T00:41:13;1.95;;;0.20;;
78744;SDS011;68064;53.100;8.824;2023-07-28T00:43:15;2.90;;;0.25;;
78744;SDS011;68064;53.100;8.824;2023-07-28T00:45:17;4.40;;;0.30;;
78744;SDS011;68064;53.100;8.824;2023-07-28T00:47:19;2.70;;;0.20;;
78744;SDS011;68064;53.100;8.824;2023-07-28T00:49:22;1.83;;;0.20;;
78744;SDS011;68064;53.100;8.824;2023-07-28T00:50:24;2.80;;;0.25;;
78744;SDS011;68064;53.100;8.824;2023-07-28T00:51:26;4.57;;;0.20;;
78744;SDS011;68064;53.100;8.824;2023-07-28T00:52:28;2.42;;;0.10;;
78744;SDS011;68064;53.100;8.824;2023-07-28T00:54:30;2.15;;;0.20;;
78744;SDS011;68064;53.100;8.824;2023-07-28T00:55:31;3.63;;;0.28;;
78744;SDS011;68064;53.100;8.824;2023-07-28T00:56:32;3.30;;;0.30;;
78744;SDS011;68064;53.100;8.824;2023-07-28T00:57:33;4.78;;;0.57;;
78744;SDS011;68064;53.100;8.824;2023-07-28T00:58:34;3.17;;;0.20;;
78744;SDS011;68064;53.100;8.824;2023-07-28T01:00:36;2.47;;;0.32;;
78744;SDS011;68064;53.100;8.824;2023-07-28T01:02:41;2.45;;;0.28;;
78744;SDS011;68064;53.100;8.824;2023-07-28T01:04:47;2.05;;;0.22;;
78744;SDS011;68064;53.100;8.824;2023-07-28T01:05:51;3.72;;;0.43;;
78744;SDS011;68064;53.100;8.824;2023-07-28T01:07:01;3.38;;;0.30;;
78744;SDS011;68064;53.100;8.824;2023-07-28T01:08:10;3.83;;;0.32;;
78744;SDS011;68064;53.100;8.824;2023-07-28T01:09:18;2.25;;;0.30;;
78744;SDS011;68064;53.100;8.824;2023-07-28T01:10:22;3.15;;;0.32;;
78744;SDS011;68064;53.100;8.824;2023-07-28T01:11:28;2.55;;;0.22;;
78744;SDS011;68064;53.100;8.824;2023-07-28T01:12:29;2.92;;;0.35;;
78744;SDS011;68064;53.100;8.824;2023-07-28T01:13:30;3.15;;;0.22;;
78744;SDS011;68064;53.100;8.824;2023-07-28T01:14:31;2.63;;;0.35;;
78744;SDS011;68064;53.100;8.824;2023-07-28T01:15:32;3.58;;;0.43;;
78744;SDS011;68064;53.100;8.824;2023-07-28T01:16:33;3.58;;;0.25;;
78744;SDS011;68064;53.100;8.824;2023-07-28T01:17:34;5.05;;;0.57;;
78744;SDS011;68064;53.100;8.824;2023-07-28T01:18:36;2.67;;;0.38;;
78744;SDS011;68064;53.100;8.824;2023-07-28T01:19:37;2.35;;;0.40;;
78744;SDS011;68064;53.100;8.824;2023-07-28T01:20:40;3.95;;;0.30;;
78744;SDS011;68064;53.100;8.824;2023-07-28T01:21:41;3.80;;;0.32;;
78744;SDS011;68064;53.100;8.824;2023-07-28T01:22:47;3.45;;;0.30;;
78744;SDS011;68064;53.100;8.824;2023-07-28T01:23:56;3.17;;;0.43;;
78744;SDS011;68064;53.100;8.824;2023-07-28T01:25:06;2.22;;;0.20;;
78744;SDS011;68064;53.100;8.824;2023-07-28T01:26:15;3.88;;;0.40;;
78744;SDS011;68064;53.100;8.824;2023-07-28T01:27:18;3.33;;;0.22;;
78744;SDS011;68064;53.100;8.824;2023-07-28T01:28:20;4.00;;;0.30;;
78744;SDS011;68064;53.100;8.824;2023-07-28T01:29:22;5.30;;;0.68;;
78744;SDS011;68064;53.100;8.824;2023-07-28T01:30:24;4.85;;;0.60;;
78744;SDS011;68064;53.100;8.824;2023-07-28T01:31:27;4.28;;;0.40;;
78744;SDS011;68064;53.100;8.824;2023-07-28T01:32:28;4.32;;;0.50;;
78744;SDS011;68064;53.100;8.824;2023-07-28T01:33:29;3.63;;;0.30;;
78744;SDS011;68064;53.100;8.824;2023-07-28T01:34:31;5.07;;;0.50;;
78744;SDS011;68064;53.100;8.824;2023-07-28T01:35:32;4.40;;;0.40;;
78744;SDS011;68064;53.100;8.824;2023-07-28T01:36:33;2.55;;;0.22;;
78744;SDS011;68064;53.100;8.824;2023-07-28T01:37:34;3.40;;;0.30;;
78744;SDS011;68064;53.100;8.824;2023-07-28T01:38:35;2.53;;;0.20;;
78744;SDS011;68064;53.100;8.824;2023-07-28T01:39:36;4.15;;;0.57;;
78744;SDS011;68064;53.100;8.824;2023-07-28T01:41:38;3.97;;;0.57;;
78744;SDS011;68064;53.100;8.824;2023-07-28T01:42:40;5.85;;;0.60;;
78744;SDS011;68064;53.100;8.824;2023-07-28T01:43:41;4.78;;;0.52;;
78744;SDS011;68064;53.100;8.824;2023-07-28T01:44:42;5.95;;;0.98;;
78744;SDS011;68064;53.100;8.824;2023-07-28T01:45:43;3.97;;;0.40;;
78744;SDS011;68064;53.100;8.824;2023-07-28T01:47:45;6.10;;;0.73;;
78744;SDS011;68064;53.100;8.824;2023-07-28T01:48:46;6.25;;;0.75;;
78744;SDS011;68064;53.100;8.824;2023-07-28T01:49:47;6.43;;;0.80;;
78744;SDS011;68064;53.100;8.824;2023-07-28T01:50:48;5.22;;;0.50;;
78744;SDS011;68064;53.100;8.824;2023-07-28T01:51:49;5.93;;;1.00;;
78744;SDS011;68064;53.100;8.824;2023-07-28T01:52:50;6.35;;;1.10;;
78744;SDS011;68064;53.100;8.824;2023-07-28T01:53:52;6.55;;;1.17;;
78744;SDS011;68064;53.100;8.824;2023-07-28T01:54:53;5.50;;;0.85;;
78744;SDS011;68064;53.100;8.824;2023-07-28T01:55:54;5.03;;;0.70;;
78744;SDS011;68064;53.100;8.824;2023-07-28T01:56:55;7.07;;;1.20;;
78744;SDS011;68064;53.100;8.824;2023-07-28T01:57:58;5.32;;;0.70;;
78744;SDS011;68064;53.100;8.824;2023-07-28T01:59:00;6.82;;;0.80;;
78744;SDS011;68064;53.100;8.824;2023-07-28T02:00:01;4.47;;;0.60;;
78744;SDS011;68064;53.100;8.824;2023-07-28T02:01:02;5.43;;;0.63;;
78744;SDS011;68064;53.100;8.824;2023-07-28T02:02:03;4.97;;;0.55;;
78744;SDS011;68064;53.100;8.824;2023-07-28T02:03:05;5.72;;;0.95;;
78744;SDS011;68064;53.100;8.824;2023-07-28T02:04:06;4.45;;;0.57;;
78744;SDS011;68064;53.100;8.824;2023-07-28T02:05:07;3.95;;;0.35;;
78744;SDS011;68064;53.100;8.824;2023-07-28T02:06:08;5.63;;;0.55;;
78744;SDS011;68064;53.100;8.824;2023-07-28T02:07:09;4.57;;;0.52;;
78744;SDS011;68064;53.100;8.824;2023-07-28T02:08:11;6.32;;;1.08;;
78744;SDS011;68064;53.100;8.824;2023-07-28T02:09:12;6.45;;;1.02;;
78744;SDS011;68064;53.100;8.824;2023-07-28T02:10:13;3.95;;;0.32;;
78744;SDS011;68064;53.100;8.824;2023-07-28T02:12:14;7.45;;;1.20;;
78744;SDS011;68064;53.100;8.824;2023-07-28T02:13:17;4.63;;;0.43;;
78744;SDS011;68064;53.100;8.824;2023-07-28T02:14:18;5.57;;;0.80;;
78744;SDS011;68064;53.100;8.824;2023-07-28T02:15:19;5.28;;;0.70;;
78744;SDS011;68064;53.100;8.824;2023-07-28T02:16:20;4.88;;;0.60;;
78744;SDS011;68064;53.100;8.824;2023-07-28T02:17:21;5.20;;;0.57;;
78744;SDS011;68064;53.100;8.824;2023-07-28T02:18:22;5.55;;;0.98;;
78744;SDS011;68064;53.100;8.824;2023-07-28T02:19:23;3.35;;;0.45;;
78744;SDS011;68064;53.100;8.824;2023-07-28T02:21:25;4.50;;;0.60;;
78744;SDS011;68064;53.100;8.824;2023-07-28T02:22:26;6.40;;;0.73;;
78744;SDS011;68064;53.100;8.824;2023-07-28T02:24:28;4.30;;;0.32;;
78744;SDS011;68064;53.100;8.824;2023-07-28T02:25:29;4.32;;;0.60;;
78744;SDS011;68064;53.100;8.824;2023-07-28T02:26:30;5.68;;;0.55;;
78744;SDS011;68064;53.100;8.824;2023-07-28T02:27:31;5.82;;;0.82;;
78744;SDS011;68064;53.100;8.824;2023-07-28T02:28:34;4.75;;;0.55;;
78744;SDS011;68064;53.100;8.824;2023-07-28T02:29:35;3.80;;;0.40;;
78744;SDS011;68064;53.100;8.824;2023-07-28T02:30:36;3.95;;;0.63;;
78744;SDS011;68064;53.100;8.824;2023-07-28T02:31:37;5.03;;;0.47;;
78744;SDS011;68064;53.100;8.824;2023-07-28T02:32:38;4.97;;;0.95;;
78744;SDS011;68064;53.100;8.824;2023-07-28T02:33:39;4.30;;;0.50;;
78744;SDS011;68064;53.100;8.824;2023-07-28T02:34:40;6.13;;;1.48;;
78744;SDS011;68064;53.100;8.824;2023-07-28T02:35:41;7.85;;;1.10;;
78744;SDS011;68064;53.100;8.824;2023-07-28T02:37:43;8.32;;;1.80;;
78744;SDS011;68064;53.100;8.824;2023-07-28T02:39:45;6.88;;;1.15;;
78744;SDS011;68064;53.100;8.824;2023-07-28T02:41:47;5.10;;;0.60;;
78744;SDS011;68064;53.100;8.824;2023-07-28T02:42:48;5.78;;;1.23;;
78744;SDS011;68064;53.100;8.824;2023-07-28T02:43:50;7.35;;;1.25;;
78744;SDS011;68064;53.100;8.824;2023-07-28T02:44:51;8.30;;;1.92;;
78744;SDS011;68064;53.100;8.824;2023-07-28T02:45:53;7.93;;;1.30;;
78744;SDS011;68064;53.100;8.824;2023-07-28T02:46:54;6.15;;;1.15;;
78744;SDS011;68064;53.100;8.824;2023-07-28T02:47:55;6.28;;;0.95;;
78744;SDS011;68064;53.100;8.824;2023-07-28T02:48:56;7.47;;;1.67;;
78744;SDS011;68064;53.100;8.824;2023-07-28T02:49:57;7.05;;;1.55;;
78744;SDS011;68064;53.100;8.824;2023-07-28T02:50:58;8.43;;;1.27;;
78744;SDS011;68064;53.100;8.824;2023-07-28T02:51:59;9.35;;;2.03;;
78744;SDS011;68064;53.100;8.824;2023-07-28T02:53:00;8.98;;;1.65;;
78744;SDS011;68064;53.100;8.824;2023-07-28T02:54:02;7.95;;;1.90;;
78744;SDS011;68064;53.100;8.824;2023-07-28T02:55:03;7.68;;;1.83;;
78744;SDS011;68064;53.100;8.824;2023-07-28T02:56:04;5.72;;;0.90;;
78744;SDS011;68064;53.100;8.824;2023-07-28T02:57:05;6.35;;;0.88;;
78744;SDS011;68064;53.100;8.824;2023-07-28T02:59:09;9.35;;;1.60;;
78744;SDS011;68064;53.100;8.824;2023-07-28T03:00:10;6.20;;;0.85;;
78744;SDS011;68064;53.100;8.824;2023-07-28T03:01:12;5.80;;;0.85;;
78744;SDS011;68064;53.100;8.824;2023-07-28T03:02:13;7.30;;;1.50;;
78744;SDS011;68064;53.100;8.824;2023-07-28T03:03:14;9.60;;;2.42;;
78744;SDS011;68064;53.100;8.824;2023-07-28T03:04:15;6.28;;;0.98;;
78744;SDS011;68064;53.100;8.824;2023-07-28T03:05:17;5.03;;;0.93;;
78744;SDS011;68064;53.100;8.824;2023-07-28T03:06:18;8.50;;;2.05;;
78744;SDS011;68064;53.100;8.824;2023-07-28T03:07:19;7.35;;;1.60;;
78744;SDS011;68064;53.100;8.824;2023-07-28T03:08:20;7.88;;;1.33;;
78744;SDS011;68064;53.100;8.824;2023-07-28T03:09:21;6.50;;;1.55;;
78744;SDS011;68064;53.100;8.824;2023-07-28T03:10:22;4.95;;;0.60;;
78744;SDS011;68064;53.100;8.824;2023-07-28T03:11:23;6.18;;;1.30;;
78744;SDS011;68064;53.100;8.824;2023-07-28T03:12:25;7.70;;;2.33;;
78744;SDS011;68064;53.100;8.824;2023-07-28T03:14:28;7.20;;;0.95;;
78744;SDS011;68064;53.100;8.824;2023-07-28T03:15:29;8.35;;;1.58;;
78744;SDS011;68064;53.100;8.824;2023-07-28T03:16:30;5.63;;;0.85;;
78744;SDS011;68064;53.100;8.824;2023-07-28T03:17:31;5.72;;;1.13;;
78744;SDS011;68064;53.100;8.824;2023-07-28T03:18:32;6.30;;;0.80;;
78744;SDS011;68064;53.100;8.824;2023-07-28T03:19:33;5.45;;;1.02;;
78744;SDS011;68064;53.100;8.824;2023-07-28T03:20:34;5.82;;;1.00;;
78744;SDS011;68064;53.100;8.824;2023-07-28T03:21:35;4.93;;;0.60;;
78744;SDS011;68064;53.100;8.824;2023-07-28T03:22:36;6.32;;;1.13;;
78744;SDS011;68064;53.100;8.824;2023-07-28T03:23:37;5.32;;;0.70;;
78744;SDS011;68064;53.100;8.824;2023-07-28T03:24:38;4.85;;;0.63;;
78744;SDS011;68064;53.100;8.824;2023-07-28T03:25:39;4.65;;;0.63;;
78744;SDS011;68064;53.100;8.824;2023-07-28T03:26:40;8.13;;;1.38;;
78744;SDS011;68064;53.100;8.824;2023-07-28T03:27:41;4.78;;;0.60;;
78744;SDS011;68064;53.100;8.824;2023-07-28T03:29:45;8.13;;;1.20;;
78744;SDS011;68064;53.100;8.824;2023-07-28T03:30:46;7.10;;;1.10;;
78744;SDS011;68064;53.100;8.824;2023-07-28T03:32:48;6.05;;;1.10;;
78744;SDS011;68064;53.100;8.824;2023-07-28T03:34:49;5.80;;;1.05;;
78744;SDS011;68064;53.100;8.824;2023-07-28T03:35:50;4.50;;;0.40;;
78744;SDS011;68064;53.100;8.824;2023-07-28T03:36:51;4.80;;;0.43;;
78744;SDS011;68064;53.100;8.824;2023-07-28T03:37:52;3.95;;;0.43;;
78744;SDS011;68064;53.100;8.824;2023-07-28T03:38:54;4.55;;;0.57;;
78744;SDS011;68064;53.100;8.824;2023-07-28T03:39:55;5.20;;;1.52;;
78744;SDS011;68064;53.100;8.824;2023-07-28T03:40:56;4.82;;;0.40;;
78744;SDS011;68064;53.100;8.824;2023-07-28T03:42:58;3.63;;;0.40;;
78744;SDS011;68064;53.100;8.824;2023-07-28T03:44:00;5.90;;;0.63;;
78744;SDS011;68064;53.100;8.824;2023-07-28T03:45:02;3.65;;;0.32;;
78744;SDS011;68064;53.100;8.824;2023-07-28T03:46:04;3.40;;;0.32;;
78744;SDS011;68064;53.100;8.824;2023-07-28T03:47:05;3.40;;;0.60;;
78744;SDS011;68064;53.100;8.824;2023-07-28T03:48:06;3.33;;;0.35;;
78744;SDS011;68064;53.100;8.824;2023-07-28T03:49:07;3.70;;;0.43;;
78744;SDS011;68064;53.100;8.824;2023-07-28T03:51:09;5.53;;;0.32;;
78744;SDS011;68064;53.100;8.824;2023-07-28T03:52:10;3.30;;;0.32;;
78744;SDS011;68064;53.100;8.824;2023-07-28T03:53:12;5.63;;;0.52;;
78744;SDS011;68064;53.100;8.824;2023-07-28T03:54:13;3.47;;;0.32;;
78744;SDS011;68064;53.100;8.824;2023-07-28T03:55:14;4.10;;;0.50;;
78744;SDS011;68064;53.100;8.824;2023-07-28T03:57:16;3.10;;;0.30;;
78744;SDS011;68064;53.100;8.824;2023-07-28T03:58:17;6.13;;;0.55;;
78744;SDS011;68064;53.100;8.824;2023-07-28T03:59:18;6.55;;;0.40;;
78744;SDS011;68064;53.100;8.824;2023-07-28T04:00:21;3.47;;;0.32;;
78744;SDS011;68064;53.100;8.824;2023-07-28T04:01:23;4.00;;;0.57;;
78744;SDS011;68064;53.100;8.824;2023-07-28T04:02:27;2.80;;;0.32;;
78744;SDS011;68064;53.100;8.824;2023-07-28T04:03:29;4.25;;;0.77;;
78744;SDS011;68064;53.100;8.824;2023-07-28T04:04:30;4.28;;;0.52;;
78744;SDS011;68064;53.100;8.824;2023-07-28T04:06:41;4.22;;;0.32;;
78744;SDS011;68064;53.100;8.824;2023-07-28T04:07:43;2.88;;;0.30;;
78744;SDS011;68064;53.100;8.824;2023-07-28T04:08:45;2.20;;;0.15;;
78744;SDS011;68064;53.100;8.824;2023-07-28T04:09:46;2.92;;;0.22;;
78744;SDS011;68064;53.100;8.824;2023-07-28T04:10:47;2.50;;;0.20;;
78744;SDS011;68064;53.100;8.824;2023-07-28T04:11:48;3.58;;;0.25;;
78744;SDS011;68064;53.100;8.824;2023-07-28T04:12:49;2.70;;;0.30;;
78744;SDS011;68064;53.100;8.824;2023-07-28T04:13:50;3.33;;;0.40;;
78744;SDS011;68064;53.100;8.824;2023-07-28T04:14:51;3.25;;;0.22;;
78744;SDS011;68064;53.100;8.824;2023-07-28T04:15:54;2.83;;;0.20;;
78744;SDS011;68064;53.100;8.824;2023-07-28T04:16:55;2.70;;;0.30;;
78744;SDS011;68064;53.100;8.824;2023-07-28T04:17:56;2.58;;;0.20;;
78744;SDS011;68064;53.100;8.824;2023-07-28T04:18:57;4.75;;;0.30;;
78744;SDS011;68064;53.100;8.824;2023-07-28T04:19:58;3.58;;;0.30;;
78744;SDS011;68064;53.100;8.824;2023-07-28T04:20:59;3.22;;;0.30;;
78744;SDS011;68064;53.100;8.824;2023-07-28T04:22:00;3.28;;;0.22;;
78744;SDS011;68064;53.100;8.824;2023-07-28T04:23:01;2.05;;;0.30;;
78744;SDS011;68064;53.100;8.824;2023-07-28T04:24:02;2.78;;;0.28;;
78744;SDS011;68064;53.100;8.824;2023-07-28T04:26:05;2.72;;;0.30;;
78744;SDS011;68064;53.100;8.824;2023-07-28T04:27:06;6.38;;;0.73;;
78744;SDS011;68064;53.100;8.824;2023-07-28T04:28:07;3.75;;;0.45;;
78744;SDS011;68064;53.100;8.824;2023-07-28T04:29:08;3.80;;;0.45;;
78744;SDS011;68064;53.100;8.824;2023-07-28T04:30:09;4.78;;;0.43;;
78744;SDS011;68064;53.100;8.824;2023-07-28T04:31:13;4.03;;;0.47;;
78744;SDS011;68064;53.100;8.824;2023-07-28T04:32:14;3.92;;;0.85;;
78744;SDS011;68064;53.100;8.824;2023-07-28T04:33:15;4.28;;;0.32;;
78744;SDS011;68064;53.100;8.824;2023-07-28T04:34:16;5.45;;;0.50;;
78744;SDS011;68064;53.100;8.824;2023-07-28T04:35:17;3.92;;;0.50;;
78744;SDS011;68064;53.100;8.824;2023-07-28T04:37:19;6.25;;;1.02;;
78744;SDS011;68064;53.100;8.824;2023-07-28T04:38:20;9.82;;;0.95;;
78744;SDS011;68064;53.100;8.824;2023-07-28T04:39:21;5.20;;;0.55;;
78744;SDS011;68064;53.100;8.824;2023-07-28T04:40:22;5.05;;;0.82;;
78744;SDS011;68064;53.100;8.824;2023-07-28T04:41:23;5.22;;;0.90;;
78744;SDS011;68064;53.100;8.824;2023-07-28T04:42:24;9.25;;;1.13;;
78744;SDS011;68064;53.100;8.824;2023-07-28T04:43:25;6.28;;;0.73;;
78744;SDS011;68064;53.100;8.824;2023-07-28T04:44:26;6.88;;;1.33;;
78744;SDS011;68064;53.100;8.824;2023-07-28T04:45:27;6.53;;;1.58;;
78744;SDS011;68064;53.100;8.824;2023-07-28T04:46:30;7.40;;;1.58;;
78744;SDS011;68064;53.100;8.824;2023-07-28T04:47:31;7.57;;;1.23;;
78744;SDS011;68064;53.100;8.824;2023-07-28T04:48:32;7.32;;;1.85;;
78744;SDS011;68064;53.100;8.824;2023-07-28T04:49:33;7.78;;;0.73;;
78744;SDS011;68064;53.100;8.824;2023-07-28T04:50:34;8.05;;;1.70;;
78744;SDS011;68064;53.100;8.824;2023-07-28T04:51:35;6.13;;;1.13;;
78744;SDS011;68064;53.100;8.824;2023-07-28T04:52:36;4.90;;;0.68;;
78744;SDS011;68064;53.100;8.824;2023-07-28T04:53:37;7.95;;;1.48;;
78744;SDS011;68064;53.100;8.824;2023-07-28T04:54:38;8.80;;;1.63;;
78744;SDS011;68064;53.100;8.824;2023-07-28T04:56:40;7.05;;;1.48;;
78744;SDS011;68064;53.100;8.824;2023-07-28T04:57:41;9.63;;;2.08;;
78744;SDS011;68064;53.100;8.824;2023-07-28T04:58:42;9.18;;;1.77;;
78744;SDS011;68064;53.100;8.824;2023-07-28T04:59:43;8.32;;;1.80;;
78744;SDS011;68064;53.100;8.824;2023-07-28T05:00:44;8.50;;;2.38;;
78744;SDS011;68064;53.100;8.824;2023-07-28T05:01:47;7.68;;;0.93;;
78744;SDS011;68064;53.100;8.824;2023-07-28T05:02:48;8.02;;;1.73;;
78744;SDS011;68064;53.100;8.824;2023-07-28T05:03:49;8.88;;;2.40;;
78744;SDS011;68064;53.100;8.824;2023-07-28T05:04:50;7.15;;;1.67;;
78744;SDS011;68064;53.100;8.824;2023-07-28T05:05:51;8.27;;;1.75;;
78744;SDS011;68064;53.100;8.824;2023-07-28T05:06:52;7.45;;;0.90;;
78744;SDS011;68064;53.100;8.824;2023-07-28T05:07:53;6.68;;;1.42;;
78744;SDS011;68064;53.100;8.824;2023-07-28T05:08:54;7.00;;;0.98;;
78744;SDS011;68064;53.100;8.824;2023-07-28T05:09:55;7.30;;;1.45;;
78744;SDS011;68064;53.100;8.824;2023-07-28T05:11:57;6.85;;;1.80;;
78744;SDS011;68064;53.100;8.824;2023-07-28T05:12:58;5.68;;;0.90;;
78744;SDS011;68064;53.100;8.824;2023-07-28T05:13:59;7.03;;;1.38;;
78744;SDS011;68064;53.100;8.824;2023-07-28T05:15:00;8.55;;;2.05;;
78744;SDS011;68064;53.100;8.824;2023-07-28T05:17:04;6.50;;;1.05;;
78744;SDS011;68064;53.100;8.824;2023-07-28T05:18:05;6.32;;;0.95;;
78744;SDS011;68064;53.100;8.824;2023-07-28T05:19:06;8.23;;;1.55;;
78744;SDS011;68064;53.100;8.824;2023-07-28T05:20:08;4.82;;;0.73;;
78744;SDS011;68064;53.100;8.824;2023-07-28T05:21:09;7.28;;;1.33;;
78744;SDS011;68064;53.100;8.824;2023-07-28T05:22:10;7.63;;;1.38;;
78744;SDS011;68064;53.100;8.824;2023-07-28T05:23:11;6.63;;;1.45;;
78744;SDS011;68064;53.100;8.824;2023-07-28T05:24:12;7.35;;;1.30;;
78744;SDS011;68064;53.100;8.824;2023-07-28T05:25:13;6.18;;;1.10;;
78744;SDS011;68064;53.100;8.824;2023-07-28T05:26:15;7.10;;;1.70;;
78744;SDS011;68064;53.100;8.824;2023-07-28T05:27:16;7.32;;;1.25;;
78744;SDS011;68064;53.100;8.824;2023-07-28T05:28:17;9.48;;;1.88;;
78744;SDS011;68064;53.100;8.824;2023-07-28T05:29:18;7.03;;;1.52;;
78744;SDS011;68064;53.100;8.824;2023-07-28T05:30:19;9.45;;;2.28;;
78744;SDS011;68064;53.100;8.824;2023-07-28T05:31:20;9.07;;;1.98;;
78744;SDS011;68064;53.100;8.824;2023-07-28T05:32:22;7.75;;;1.58;;
78744;SDS011;68064;53.100;8.824;2023-07-28T05:33:23;6.05;;;1.05;;
78744;SDS011;68064;53.100;8.824;2023-07-28T05:34:24;6.25;;;1.15;;
78744;SDS011;68064;53.100;8.824;2023-07-28T05:35:25;5.47;;;0.95;;
78744;SDS011;68064;53.100;8.824;2023-07-28T05:36:26;5.85;;;1.08;;
78744;SDS011;68064;53.100;8.824;2023-07-28T05:37:27;7.45;;;1.52;;
78744;SDS011;68064;53.100;8.824;2023-07-28T05:38:28;6.97;;;0.98;;
78744;SDS011;68064;53.100;8.824;2023-07-28T05:39:29;4.15;;;0.47;;
78744;SDS011;68064;53.100;8.824;2023-07-28T05:40:30;4.45;;;0.35;;
78744;SDS011;68064;53.100;8.824;2023-07-28T05:42:32;5.03;;;0.70;;
78744;SDS011;68064;53.100;8.824;2023-07-28T05:43:33;5.72;;;0.80;;
78744;SDS011;68064;53.100;8.824;2023-07-28T05:44:34;5.10;;;0.57;;
78744;SDS011;68064;53.100;8.824;2023-07-28T05:45:35;5.93;;;0.82;;
78744;SDS011;68064;53.100;8.824;2023-07-28T05:46:37;6.28;;;0.82;;
78744;SDS011;68064;53.100;8.824;2023-07-28T05:47:39;5.88;;;0.95;;
78744;SDS011;68064;53.100;8.824;2023-07-28T05:48:40;5.95;;;1.15;;
78744;SDS011;68064;53.100;8.824;2023-07-28T05:49:41;4.93;;;0.63;;
78744;SDS011;68064;53.100;8.824;2023-07-28T05:51:43;6.20;;;0.77;;
78744;SDS011;68064;53.100;8.824;2023-07-28T05:52:44;5.35;;;0.68;;
78744;SDS011;68064;53.100;8.824;2023-07-28T05:53:45;4.97;;;0.68;;
78744;SDS011;68064;53.100;8.824;2023-07-28T05:55:47;5.25;;;0.77;;
78744;SDS011;68064;53.100;8.824;2023-07-28T05:56:48;5.10;;;0.63;;
78744;SDS011;68064;53.100;8.824;2023-07-28T05:57:49;8.25;;;0.70;;
78744;SDS011;68064;53.100;8.824;2023-07-28T05:58:51;6.88;;;0.63;;
78744;SDS011;68064;53.100;8.824;2023-07-28T05:59:52;5.30;;;1.05;;
78744;SDS011;68064;53.100;8.824;2023-07-28T06:00:53;5.95;;;0.95;;
78744;SDS011;68064;53.100;8.824;2023-07-28T06:01:54;3.05;;;0.40;;
78744;SDS011;68064;53.100;8.824;2023-07-28T06:02:56;3.92;;;0.63;;
78744;SDS011;68064;53.100;8.824;2023-07-28T06:03:57;6.32;;;0.93;;
78744;SDS011;68064;53.100;8.824;2023-07-28T06:04:58;4.90;;;0.65;;
78744;SDS011;68064;53.100;8.824;2023-07-28T06:05:59;5.65;;;0.52;;
78744;SDS011;68064;53.100;8.824;2023-07-28T06:07:00;5.85;;;1.15;;
78744;SDS011;68064;53.100;8.824;2023-07-28T06:08:02;5.07;;;0.70;;
78744;SDS011;68064;53.100;8.824;2023-07-28T06:09:04;6.43;;;1.02;;
78744;SDS011;68064;53.100;8.824;2023-07-28T06:10:05;6.65;;;1.10;;
78744;SDS011;68064;53.100;8.824;2023-07-28T06:11:07;4.65;;;0.45;;
78744;SDS011;68064;53.100;8.824;2023-07-28T06:12:08;8.05;;;1.77;;
78744;SDS011;68064;53.100;8.824;2023-07-28T06:13:09;6.70;;;1.05;;
78744;SDS011;68064;53.100;8.824;2023-07-28T06:14:10;6.75;;;1.38;;
78744;SDS011;68064;53.100;8.824;2023-07-28T06:15:11;7.70;;;1.70;;
78744;SDS011;68064;53.100;8.824;2023-07-28T06:16:13;8.70;;;1.90;;
78744;SDS011;68064;53.100;8.824;2023-07-28T06:17:14;12.10;;;3.60;;
78744;SDS011;68064;53.100;8.824;2023-07-28T06:18:16;11.18;;;2.33;;
78744;SDS011;68064;53.100;8.824;2023-07-28T06:19:17;9.65;;;2.50;;
78744;SDS011;68064;53.100;8.824;2023-07-28T06:21:19;9.52;;;2.30;;
78744;SDS011;68064;53.100;8.824;2023-07-28T06:22:20;13.85;;;3.42;;
78744;SDS011;68064;53.100;8.824;2023-07-28T06:24:22;7.88;;;1.77;;
78744;SDS011;68064;53.100;8.824;2023-07-28T06:26:24;9.00;;;1.50;;
78744;SDS011;68064;53.100;8.824;2023-07-28T06:27:25;11.32;;;3.58;;
78744;SDS011;68064;53.100;8.824;2023-07-28T06:28:26;10.90;;;3.55;;
78744;SDS011;68064;53.100;8.824;2023-07-28T06:29:27;12.68;;;4.55;;
78744;SDS011;68064;53.100;8.824;2023-07-28T06:30:28;10.25;;;2.03;;
78744;SDS011;68064;53.100;8.824;2023-07-28T06:31:29;11.77;;;3.92;;
78744;SDS011;68064;53.100;8.824;2023-07-28T06:32:30;11.60;;;4.05;;
78744;SDS011;68064;53.100;8.824;2023-07-28T06:34:34;15.40;;;4.22;;
78744;SDS011;68064;53.100;8.824;2023-07-28T06:35:35;12.77;;;3.85;;
78744;SDS011;68064;53.100;8.824;2023-07-28T06:36:36;7.50;;;1.40;;
78744;SDS011;68064;53.100;8.824;2023-07-28T06:37:37;11.68;;;3.50;;
78744;SDS011;68064;53.100;8.824;2023-07-28T06:39:39;9.93;;;3.15;;
78744;SDS011;68064;53.100;8.824;2023-07-28T06:40:40;8.23;;;1.73;;
78744;SDS011;68064;53.100;8.824;2023-07-28T06:41:41;11.32;;;4.13;;
78744;SDS011;68064;53.100;8.824;2023-07-28T06:42:42;10.07;;;3.00;;
78744;SDS011;68064;53.100;8.824;2023-07-28T06:43:43;11.77;;;1.77;;
78744;SDS011;68064;53.100;8.824;2023-07-28T06:44:44;8.73;;;2.10;;
78744;SDS011;68064;53.100;8.824;2023-07-28T06:45:45;12.50;;;3.50;;
78744;SDS011;68064;53.100;8.824;2023-07-28T06:46:46;13.65;;;4.25;;
78744;SDS011;68064;53.100;8.824;2023-07-28T06:47:47;11.00;;;3.47;;
78744;SDS011;68064;53.100;8.824;2023-07-28T06:49:50;11.80;;;4.35;;
78744;SDS011;68064;53.100;8.824;2023-07-28T06:51:52;13.43;;;4.22;;
78744;SDS011;68064;53.100;8.824;2023-07-28T06:52:53;9.95;;;3.22;;
78744;SDS011;68064;53.100;8.824;2023-07-28T06:53:54;8.32;;;1.98;;
78744;SDS011;68064;53.100;8.824;2023-07-28T06:54:55;12.10;;;3.90;;
78744;SDS011;68064;53.100;8.824;2023-07-28T06:55:56;11.68;;;4.40;;
78744;SDS011;68064;53.100;8.824;2023-07-28T06:56:57;10.10;;;2.55;;
78744;SDS011;68064;53.100;8.824;2023-07-28T06:57:58;13.68;;;3.78;;
78744;SDS011;68064;53.100;8.824;2023-07-28T06:59:00;10.35;;;3.95;;
78744;SDS011;68064;53.100;8.824;2023-07-28T07:00:01;9.73;;;2.63;;